Flight Track Log - Related Links

Times and Time Zones

All times are in EDT time to prevent confusion due to time zone crossing. See the EMD21 flight status page for this flight to view local times or setup timezone preferences in your user account.

Time Position Orientation Groundspeed Altitude Reporting Facility
EDT Latitude Longitude Course Direction KTS MPH feet Rate Location/Type
Mon 05:21:58 PM 38.0214 -97.8281 160° South 151 174 3,200  Level Kansas City Center
Mon 05:22:48 PM 37.9858 -97.8094 158° South 157 181 4,000 727 Climbing Kansas City Center
Mon 05:23:04 PM 37.9717 -97.8028 160° South 162 186 4,000 103 Level Kansas City Center
Mon 05:23:46 PM 37.9342 -97.7961 172° South 197 227 4,100 -95 Climbing Kansas City Center
Mon 05:24:07 PM 37.9183 -97.7908 165° South 190 219 3,900 -81 Descending Kansas City Center
Mon 05:25:00 PM 37.8719 -97.7814 171° South 185 213 4,000 111 Climbing Kansas City Center
Mon 05:25:55 PM 37.8289 -97.7694 168° South 175 201 4,100 -86 Climbing Kansas City Center
Mon 05:26:10 PM 37.8236 -97.7669 159° South 180 207 3,900 -98 Descending Kansas City Center
Mon 05:26:56 PM 37.7814 -97.7581 171° South 167 192 4,000  Climbing Kansas City Center
Mon 05:27:12 PM 37.7778 -97.7564 160° South 173 199 3,900  Descending Kansas City Center
Mon 05:28:16 PM 37.7208 -97.7397 167° South 173 199 4,000 103 Climbing Kansas City Center
Mon 05:29:08 PM 37.6769 -97.7183 159° South 184 212 4,100 54 Climbing Kansas City Center
Mon 05:30:08 PM 37.6306 -97.6936 157° South 182 209 4,100  Level Kansas City Center
Mon 05:31:03 PM 37.5864 -97.6711 158° South 188 216 4,100 -82 Level Kansas City Center
Mon 05:31:21 PM 37.5781 -97.6672 160° South 182 209 4,000  Descending Kansas City Center
Mon 05:32:10 PM 37.5356 -97.6472 160° South 177 204 4,100 -495 Climbing Kansas City Center
Mon 05:33:10 PM 37.5217 -97.5886 107° East 172 198 3,100 -880 Descending Kansas City Center
Mon 05:33:25 PM 37.5197 -97.5833 115° Southeast 175 201 3,000 -109 Descending Kansas City Center
Mon 05:34:05 PM 37.5089 -97.5431 109° East 147 169 3,000  Level Kansas City Center
Mon 05:34:27 PM 37.5089 -97.5242 90° East 164 189 3,000  Level Kansas City Center
Mon 05:35:12 PM 37.5303 -97.5028 38° Northeast 125 144 3,000  Level Kansas City Center
Mon 05:35:30 PM 37.5369 -97.4958 40° Northeast 140 161 3,000 91 Level Kansas City Center
Mon 05:36:18 PM 37.5586 -97.4722 41° Northeast 119 137 3,100 -362 Climbing Kansas City Center
Mon 05:37:26 PM 37.5944 -97.4508 25° Northeast 127 146 2,300 -689 Descending Kansas City Center
Mon 05:38:20 PM 37.6186 -97.4392 21° North 117 135 1,700 -609 Descending Kansas City Center
Mon 05:38:35 PM 37.6261 -97.4356 21° North 126 145 1,600 -400 Descending Kansas City Center

Login

Don't have an account? Register now (free) for customized features, flight alerts, and more!